Time;durP1;ratioP1;P1;durP2;ratioP2;P2;SDS_P1;SDS_P2;PMS_P1;PMS_P2;Temp;Humidity;BMP_temperature;BMP_pressure;BME280_temperature;BME280_humidity;BME280_pressure;Samples;Min_cycle;Max_cycle;Signal;HPM_P1;HPM_P2
2022/02/09 00:00:42;;;;;;;37.95;20.48;;;;;;;8.67;84.57;102471.66;5015614;28;20060;-60
2022/02/09 00:03:17;;;;;;;33.88;20.63;;;;;;;8.87;84.68;102471.03;5010898;28;20045;-63
2022/02/09 00:08:12;;;;;;;30.25;19.80;;;;;;;8.89;83.76;102461.44;5028919;28;20073;-60
2022/02/09 00:10:42;;;;;;;30.77;19.42;;;;;;;8.84;83.88;102455.91;5035279;28;20049;-59
2022/02/09 00:15:50;;;;;;;32.85;20.05;;;;;;;8.71;83.79;102455.50;5020191;28;20038;-58
2022/02/09 00:32:45;;;;;;;31.55;19.42;;;;;;;8.40;85.08;102451.59;5022307;28;20068;-60
2022/02/09 00:42:22;;;;;;;32.13;19.05;;;;;;;8.47;84.68;102443.94;5042202;28;20052;-60
2022/02/09 00:59:30;;;;;;;29.52;17.73;;;;;;;8.37;84.21;102432.06;5037250;28;20057;-60
2022/02/09 01:57:09;;;;;;;32.10;19.38;;;;;;;7.91;85.10;102423.19;5036386;28;20058;-59
2022/02/09 01:59:37;;;;;;;31.45;18.05;;;;;;;8.09;84.88;102418.50;5036850;28;20059;-65
2022/02/09 02:02:05;;;;;;;29.60;19.20;;;;;;;7.76;85.21;102422.16;5036568;28;20045;-65
2022/02/09 02:04:33;;;;;;;33.67;19.92;;;;;;;7.82;85.83;102426.63;5034922;28;20056;-65
2022/02/09 02:07:03;;;;;;;28.63;18.65;;;;;;;7.74;85.68;102430.63;5034480;28;20052;-64
2022/02/09 02:09:35;;;;;;;30.50;19.40;;;;;;;7.75;85.50;102428.75;5036492;28;20049;-64
2022/02/09 02:12:17;;;;;;;33.28;19.48;;;;;;;7.65;86.40;102420.38;5036133;28;20057;-65
2022/02/09 02:14:51;;;;;;;38.17;19.15;;;;;;;7.53;86.36;102416.91;5020329;28;20266;-65
2022/02/09 02:17:27;;;;;;;34.17;19.95;;;;;;;7.43;86.95;102419.47;5036348;28;20497;-65
2022/02/09 02:20:00;;;;;;;32.30;19.52;;;;;;;7.53;86.58;102408.69;5036091;28;20068;-65
2022/02/09 02:23:24;;;;;;;31.13;18.73;;;;;;;7.43;86.71;102408.50;5035207;28;20053;-64
2022/02/09 02:36:31;;;;;;;29.60;17.27;;;;;;;7.51;86.48;102384.25;4996024;28;20049;-65
2022/02/09 03:13:32;;;;;;;26.27;15.27;;;;;;;7.38;84.99;102348.13;5030393;28;20060;-65
2022/02/09 03:16:14;;;;;;;26.92;16.02;;;;;;;7.23;85.77;102346.03;5025071;28;20057;-66
2022/02/09 03:21:39;;;;;;;29.87;14.67;;;;;;;7.50;84.53;102326.91;5021919;28;20077;-65
2022/02/09 03:24:28;;;;;;;31.48;16.13;;;;;;;7.39;84.37;102325.94;5023140;28;20722;-65
2022/02/09 03:27:18;;;;;;;28.45;16.33;;;;;;;7.08;86.24;102320.31;5017829;28;20053;-64
2022/02/09 03:46:22;;;;;;;26.48;15.02;;;;;;;7.14;84.75;102292.72;5017095;28;20074;-65
2022/02/09 03:49:35;;;;;;;28.90;15.63;;;;;;;7.05;84.93;102293.38;5020021;28;20065;-65
2022/02/09 03:54:23;;;;;;;32.08;16.80;;;;;;;6.88;86.05;102285.22;5034466;28;20056;-65
2022/02/09 03:59:24;;;;;;;28.25;15.93;;;;;;;6.80;85.77;102291.94;5021437;28;20299;-64
2022/02/09 04:01:51;;;;;;;29.88;16.15;;;;;;;6.99;85.47;102283.44;5039475;28;20045;-65
2022/02/09 04:04:19;;;;;;;30.33;15.50;;;;;;;6.79;86.04;102284.81;5045833;28;20052;-64
2022/02/09 04:06:50;;;;;;;25.75;15.43;;;;;;;6.86;85.24;102287.38;5024004;28;20069;-64
2022/02/09 04:09:20;;;;;;;30.77;15.98;;;;;;;6.83;85.37;102274.19;5031392;28;20057;-65
2022/02/09 04:11:57;;;;;;;28.27;15.65;;;;;;;6.75;85.89;102280.06;5020000;28;20053;-64
2022/02/09 04:14:45;;;;;;;25.55;15.15;;;;;;;6.78;85.36;102272.19;5027746;28;20501;-65
2022/02/09 04:36:27;;;;;;;31.27;14.90;;;;;;;6.95;83.46;102276.81;5024598;28;20050;-65
2022/02/09 04:39:11;;;;;;;24.00;15.27;;;;;;;6.93;83.65;102277.06;5038414;28;20041;-65
2022/02/09 04:57:28;;;;;;;25.52;15.10;;;;;;;6.71;83.07;102278.91;5037719;28;20064;-65
2022/02/09 05:25:03;;;;;;;27.05;14.93;;;;;;;6.69;81.91;102287.34;5036554;28;20076;-64
2022/02/09 05:27:47;;;;;;;28.23;15.55;;;;;;;6.60;82.77;102288.88;5019428;28;20461;-65
2022/02/09 05:30:14;;;;;;;30.85;15.45;;;;;;;6.59;82.95;102289.94;5036939;28;20458;-64
2022/02/09 05:32:42;;;;;;;28.92;15.05;;;;;;;6.69;82.61;102292.84;5017199;28;20060;-65
2022/02/09 05:35:10;;;;;;;25.38;14.70;;;;;;;6.57;82.83;102296.75;5006948;28;20076;-65
2022/02/09 05:37:38;;;;;;;30.77;15.05;;;;;;;6.68;82.41;102299.41;5028558;28;20057;-65
2022/02/09 05:40:06;;;;;;;28.63;15.13;;;;;;;6.86;82.10;102292.84;5037068;28;20054;-65
2022/02/09 05:42:34;;;;;;;28.02;15.02;;;;;;;6.84;81.55;102295.84;5036957;28;20053;-65
2022/02/09 05:45:08;;;;;;;32.00;15.02;;;;;;;6.75;81.55;102291.00;5018138;28;20064;-66
2022/02/09 05:50:35;;;;;;;29.23;14.85;;;;;;;6.68;81.68;102284.88;5034275;28;20416;-66
2022/02/09 05:55:49;;;;;;;26.40;14.00;;;;;;;6.63;82.35;102293.00;5018385;28;20054;-64
2022/02/09 06:00:59;;;;;;;29.70;15.90;;;;;;;6.75;81.22;102291.00;5025001;28;20073;-65
2022/02/09 06:03:26;;;;;;;28.60;15.82;;;;;;;6.80;81.35;102289.19;5030553;28;20050;-59
2022/02/09 06:05:54;;;;;;;29.20;15.18;;;;;;;6.66;81.97;102290.59;5028533;28;20061;-61
2022/02/09 06:08:23;;;;;;;35.42;18.35;;;;;;;6.72;82.08;102297.00;5036213;28;20056;-61
2022/02/09 06:11:05;;;;;;;32.92;16.95;;;;;;;6.67;82.17;102291.44;5037523;28;20412;-60
2022/02/09 06:13:55;;;;;;;30.75;15.60;;;;;;;6.65;82.23;102293.59;5039022;28;20080;-61
2022/02/09 06:21:53;;;;;;;26.17;16.08;;;;;;;6.69;82.08;102295.56;5025662;28;20064;-59
2022/02/09 06:24:21;;;;;;;31.25;15.68;;;;;;;6.72;82.16;102302.47;5034511;28;20049;-60
2022/02/09 06:26:48;;;;;;;28.60;15.45;;;;;;;6.72;82.33;102295.09;5018327;28;20049;-59
2022/02/09 06:29:21;;;;;;;28.98;15.70;;;;;;;6.59;82.18;102292.69;5036467;28;20528;-58
2022/02/09 06:31:49;;;;;;;31.20;15.63;;;;;;;6.54;83.05;102297.22;5036174;28;20061;-59
2022/02/09 06:34:20;;;;;;;31.00;16.10;;;;;;;6.50;83.24;102302.38;5034856;28;20053;-60
2022/02/09 06:36:58;;;;;;;30.63;16.45;;;;;;;6.66;82.80;102295.25;5007985;28;20081;-62
2022/02/09 06:39:27;;;;;;;35.20;15.70;;;;;;;6.83;81.94;102293.34;5011751;28;20049;-62
2022/02/09 06:41:56;;;;;;;38.97;18.60;;;;;;;6.82;81.35;102295.25;5012580;28;20610;-62
2022/02/09 06:44:25;;;;;;;34.47;17.25;;;;;;;6.77;81.20;102294.34;5036068;28;20061;-61
2022/02/09 06:46:53;;;;;;;30.10;16.40;;;;;;;6.73;81.71;102294.00;5003710;28;20054;-60
2022/02/09 06:49:21;;;;;;;34.30;14.75;;;;;;;6.70;81.39;102297.25;5034794;28;20049;-58
2022/02/09 06:51:49;;;;;;;31.15;15.18;;;;;;;6.75;81.05;102296.50;5015980;28;20052;-58
2022/02/09 06:59:28;;;;;;;41.75;16.73;;;;;;;6.63;81.63;102299.31;5027015;28;20040;-55
2022/02/09 07:02:05;;;;;;;36.97;16.65;;;;;;;6.69;81.66;102292.84;5022557;28;20060;-60
2022/02/09 07:04:36;;;;;;;27.08;14.95;;;;;;;6.69;81.22;102302.97;5010778;28;20064;-61
2022/02/09 07:07:05;;;;;;;32.45;16.23;;;;;;;6.62;81.45;102308.63;5034679;28;20096;-60
2022/02/09 07:09:32;;;;;;;29.83;15.40;;;;;;;6.67;81.21;102295.03;5035301;28;20049;-60
2022/02/09 07:12:00;;;;;;;28.40;15.65;;;;;;;6.51;81.97;102301.31;5032956;28;20133;-59
2022/02/09 07:14:28;;;;;;;29.65;15.88;;;;;;;6.79;81.97;102305.88;5035149;28;20057;-60
2022/02/09 07:16:57;;;;;;;33.28;15.98;;;;;;;6.67;81.45;102310.59;5032898;28;20057;-58
2022/02/09 07:19:26;;;;;;;28.52;14.85;;;;;;;6.68;81.93;102304.03;5030293;28;20058;-61
2022/02/09 07:21:54;;;;;;;34.05;16.65;;;;;;;6.62;81.54;102313.25;5024220;28;20049;-60
2022/02/09 07:24:22;;;;;;;27.27;15.63;;;;;;;6.33;82.74;102311.66;5028218;28;20071;-59
2022/02/09 07:27:11;;;;;;;27.40;15.77;;;;;;;6.42;82.69;102316.47;5007626;28;20058;-59
2022/02/09 07:29:37;;;;;;;31.83;16.08;;;;;;;6.07;84.06;102320.47;5031561;28;20053;-60
2022/02/09 07:32:05;;;;;;;31.95;15.90;;;;;;;6.15;84.67;102320.09;5033740;28;20050;-58
2022/02/09 07:34:32;;;;;;;32.80;17.58;;;;;;;6.40;83.58;102312.31;5029339;28;20061;-57
2022/02/09 07:36:59;;;;;;;30.17;16.92;;;;;;;6.17;83.75;102307.81;5030513;28;20523;-58
2022/02/09 07:39:27;;;;;;;33.95;17.02;;;;;;;6.26;83.63;102313.72;5018722;28;20033;-60
2022/02/09 07:41:55;;;;;;;34.55;16.85;;;;;;;6.47;83.44;102313.00;5016160;28;20624;-60
2022/02/09 07:44:44;;;;;;;29.80;16.95;;;;;;;6.77;82.31;102316.25;5010368;28;20643;-60
2022/02/09 07:48:11;;;;;;;36.38;17.88;;;;;;;6.76;82.27;102306.38;5031573;28;20053;-60
2022/02/09 07:52:51;;;;;;;42.05;18.42;;;;;;;7.02;82.08;102311.19;5033639;28;20064;-59
2022/02/09 07:55:18;;;;;;;;;;;;;;;7.02;80.48;102305.69;5011095;28;20061;-61
2022/02/09 07:57:46;;;;;;;36.75;16.83;;;;;;;6.96;81.08;102300.41;5001083;28;19921;-59
2022/02/09 08:00:13;;;;;;;30.60;16.50;;;;;;;7.19;80.50;102297.44;5023620;28;20134;-60
2022/02/09 08:02:46;;;;;;;33.22;17.52;;;;;;;7.15;79.88;102304.53;5030381;28;20061;-60
2022/02/09 08:05:13;;;;;;;36.80;16.90;;;;;;;7.02;80.00;102297.47;4998656;28;20050;-62
2022/02/09 08:07:42;;;;;;;33.60;17.58;;;;;;;7.12;80.35;102300.34;5017410;28;20517;-60
2022/02/09 08:10:22;;;;;;;32.03;16.00;;;;;;;7.15;79.03;102294.38;5016601;28;20054;-62
2022/02/09 08:27:06;;;;;;;36.67;17.80;;;;;;;6.93;80.06;102285.28;5025194;28;20500;-60
2022/02/09 08:30:32;;;;;;;36.30;18.65;;;;;;;7.14;80.10;102283.66;5034481;28;20084;-61
2022/02/09 08:32:50;;;;;;;32.28;17.60;;;;;;;7.13;79.77;102282.03;5003012;28;20053;-60
2022/02/09 08:35:09;;;;;;;32.38;18.58;;;;;;;7.46;79.84;102282.72;5032674;28;20516;-61
2022/02/09 08:37:37;;;;;;;34.95;18.73;;;;;;;7.60;78.70;102278.53;5023231;28;20054;-61
2022/02/09 08:40:06;;;;;;;39.40;23.38;;;;;;;7.77;78.14;102283.94;5025703;28;20504;-64
2022/02/09 08:42:33;;;;;;;38.92;18.65;;;;;;;8.00;78.01;102278.19;5030998;28;20411;-60
2022/02/09 08:45:01;;;;;;;38.95;18.55;;;;;;;7.84;77.07;102281.84;5027842;28;20054;-59
2022/02/09 08:47:49;;;;;;;33.08;18.10;;;;;;;7.68;77.00;102282.75;5032575;28;20056;-61
2022/02/09 08:50:16;;;;;;;38.67;19.27;;;;;;;7.55;77.18;102277.66;5033068;28;20052;-63
2022/02/09 08:52:44;;;;;;;33.88;19.05;;;;;;;7.65;77.92;102269.53;5032887;28;20378;-60
2022/02/09 08:55:11;;;;;;;33.40;18.08;;;;;;;7.47;77.67;102267.97;5033394;28;20049;-61
2022/02/09 08:57:38;;;;;;;33.78;17.60;;;;;;;7.48;77.85;102266.06;5031937;28;20087;-59
2022/02/09 09:00:16;;;;;;;34.25;17.00;;;;;;;7.52;77.89;102268.00;5032883;28;20048;-61
2022/02/09 09:02:47;;;;;;;28.48;15.73;;;;;;;7.65;77.08;102264.06;5035216;28;20072;-61
2022/02/09 09:05:22;;;;;;;34.92;16.25;;;;;;;7.65;76.51;102261.31;5037234;28;20042;-60
2022/02/09 09:07:55;;;;;;;36.53;16.13;;;;;;;7.86;76.98;102258.53;5037137;28;20053;-60
2022/02/09 09:10:37;;;;;;;32.10;17.45;;;;;;;7.84;76.44;102252.50;5035857;28;20050;-61
2022/02/09 10:30:59;;;;;;;33.85;15.30;;;;;;;8.85;70.52;102226.78;5014947;28;20492;-61
2022/02/09 10:33:59;;;;;;;28.63;13.98;;;;;;;9.14;67.90;102221.69;5024876;28;20057;-59
2022/02/09 10:36:26;;;;;;;29.45;15.85;;;;;;;9.17;68.43;102220.34;5031352;28;20501;-60
2022/02/09 10:39:09;;;;;;;37.03;16.05;;;;;;;9.08;69.02;102220.84;5030746;28;20050;-58
2022/02/09 10:41:49;;;;;;;24.88;15.35;;;;;;;8.96;69.03;102217.47;5018737;28;20057;-55
2022/02/09 10:44:22;;;;;;;33.00;14.77;;;;;;;9.29;69.05;102215.44;5031144;28;20409;-59
2022/02/09 10:46:52;;;;;;;34.50;14.52;;;;;;;9.41;67.60;102207.78;5004385;28;20049;-61
2022/02/09 10:49:22;;;;;;;27.38;13.55;;;;;;;9.61;66.54;102207.84;5022852;28;20049;-61
2022/02/09 10:52:05;;;;;;;25.48;12.73;;;;;;;9.81;65.81;102200.50;5018263;28;20041;-62
2022/02/09 10:54:34;;;;;;;25.55;12.43;;;;;;;9.62;65.45;102202.09;5026604;28;20520;-60
2022/02/09 10:57:05;;;;;;;26.90;12.32;;;;;;;9.85;65.79;102193.31;5035163;28;20551;-61
2022/02/09 10:59:37;;;;;;;22.60;12.65;;;;;;;10.01;64.82;102180.41;5016269;28;20041;-62
2022/02/09 11:02:06;;;;;;;21.05;11.13;;;;;;;9.86;64.79;102181.25;5001940;28;20049;-61
2022/02/09 11:04:33;;;;;;;23.52;10.48;;;;;;;9.68;65.53;102180.91;5015982;28;20053;-62
2022/02/09 11:07:01;;;;;;;30.23;11.43;;;;;;;9.68;65.36;102179.00;5028904;28;20053;-63
2022/02/09 11:09:29;;;;;;;19.33;10.25;;;;;;;10.04;64.33;102177.94;5001177;28;20046;-63
2022/02/09 11:11:56;;;;;;;26.73;10.70;;;;;;;9.91;64.55;102175.75;5016848;28;20054;-62
2022/02/09 11:14:26;;;;;;;22.48;10.35;;;;;;;10.03;64.36;102180.97;5029872;28;20037;-62
2022/02/09 11:16:59;;;;;;;27.88;10.77;;;;;;;9.86;64.03;102172.97;5034874;28;20045;-63
2022/02/09 11:19:36;;;;;;;28.92;11.57;;;;;;;9.96;64.53;102175.75;5034765;28;20057;-63
2022/02/09 11:22:05;;;;;;;24.75;10.77;;;;;;;10.17;64.05;102171.09;5016006;28;20053;-63
2022/02/09 11:24:33;;;;;;;28.00;11.82;;;;;;;10.12;63.56;102174.69;5017489;28;20045;-61
2022/02/09 11:27:31;;;;;;;31.83;12.80;;;;;;;9.82;63.94;102160.03;5024584;28;20060;-62
2022/02/09 11:30:20;;;;;;;27.10;13.38;;;;;;;9.57;64.65;102155.28;5003813;28;20041;-62
2022/02/09 11:33:17;;;;;;;31.08;12.40;;;;;;;9.85;64.54;102149.28;4993831;28;20060;-62
2022/02/09 11:36:04;;;;;;;26.00;12.98;;;;;;;10.33;63.11;102144.38;5028323;28;20538;-61
2022/02/09 11:38:40;;;;;;;27.73;13.57;;;;;;;10.34;63.87;102146.03;5042701;28;20066;-61
2022/02/09 11:41:17;;;;;;;26.88;12.52;;;;;;;10.15;63.30;102140.25;5034148;28;20053;-63
2022/02/09 11:55:21;;;;;;;29.30;13.77;;;;;;;10.70;60.65;102139.34;5019118;28;20057;-63
2022/02/09 12:09:42;;;;;;;25.40;12.25;;;;;;;10.92;60.30;102112.25;4999103;28;20057;-61
2022/02/09 12:12:14;;;;;;;25.45;12.88;;;;;;;10.87;60.01;102118.63;5004724;28;20219;-61
2022/02/09 12:14:53;;;;;;;27.58;13.20;;;;;;;10.93;60.40;102114.72;5014918;28;20046;-63
2022/02/09 12:20:02;;;;;;;28.20;12.20;;;;;;;11.02;60.07;102110.28;5026416;28;20050;-60
2022/02/09 12:22:46;;;;;;;24.85;12.38;;;;;;;11.10;59.73;102101.44;5030737;28;20053;-62
2022/02/09 12:25:14;;;;;;;28.08;12.38;;;;;;;11.03;60.04;102105.59;5017589;28;20054;-65
2022/02/09 12:27:48;;;;;;;26.33;12.63;;;;;;;11.31;59.78;102100.19;5024941;28;20053;-65
2022/02/09 12:30:21;;;;;;;27.48;12.02;;;;;;;11.30;59.40;102092.22;5040197;28;20045;-65
2022/02/09 12:32:48;;;;;;;22.35;12.20;;;;;;;11.18;59.69;102089.81;5041459;28;20045;-66
2022/02/09 12:35:16;;;;;;;28.05;12.57;;;;;;;10.89;60.35;102094.38;5037529;28;20049;-66
2022/02/09 12:37:45;;;;;;;26.92;12.43;;;;;;;11.03;60.06;102087.13;5019247;28;20057;-66
2022/02/09 12:40:18;;;;;;;27.10;12.63;;;;;;;11.22;60.04;102077.09;5004426;28;20052;-66
2022/02/09 12:42:50;;;;;;;27.80;14.93;;;;;;;11.22;59.56;102079.03;5017875;28;20045;-65
2022/02/09 12:45:23;;;;;;;26.52;12.90;;;;;;;11.30;59.30;102068.22;5017583;28;20053;-60
2022/02/09 12:47:57;;;;;;;29.70;12.40;;;;;;;11.32;59.37;102066.00;5012316;28;20073;-66
2022/02/09 12:50:32;;;;;;;26.40;12.43;;;;;;;11.51;58.84;102059.78;4981498;28;20049;-66
2022/02/09 12:53:02;;;;;;;25.40;11.93;;;;;;;11.54;58.73;102065.56;5010123;28;20053;-65
2022/02/09 12:55:31;;;;;;;30.90;11.65;;;;;;;11.76;58.43;102052.19;5033012;28;20041;-66
2022/02/09 12:58:09;;;;;;;27.50;12.55;;;;;;;11.86;58.05;102054.84;5036490;28;20057;-65
2022/02/09 13:00:46;;;;;;;30.08;13.30;;;;;;;11.83;57.82;102046.34;5028720;28;20116;-66
2022/02/09 13:03:19;;;;;;;24.60;12.07;;;;;;;11.67;58.51;102042.03;5024635;28;20489;-66
2022/02/09 13:05:56;;;;;;;31.92;12.57;;;;;;;12.03;57.98;102046.16;5025298;28;20053;-66
2022/02/09 13:08:28;;;;;;;25.58;12.02;;;;;;;12.16;57.36;102032.50;5027060;28;20048;-65
2022/02/09 13:11:18;;;;;;;21.42;11.93;;;;;;;12.43;56.92;102029.97;5037594;28;20049;-65
2022/02/09 13:13:53;;;;;;;30.77;12.20;;;;;;;12.42;56.49;102035.78;5037683;28;20045;-66
2022/02/09 14:12:29;;;;;;;22.10;9.43;;;;;;;13.42;52.56;101962.47;5026505;28;20050;-60
2022/02/09 14:17:49;;;;;;;22.65;10.18;;;;;;;13.46;53.05;101957.16;5044328;28;20072;-58
2022/02/09 14:53:40;;;;;;;18.83;8.00;;;;;;;13.03;52.91;101947.34;5000845;28;20485;-66
2022/02/09 14:56:28;;;;;;;22.52;8.50;;;;;;;13.08;53.02;101939.81;5018571;28;20053;-66
2022/02/09 14:59:01;;;;;;;17.48;7.75;;;;;;;13.37;52.87;101934.09;5002498;28;20045;-67
2022/02/09 15:01:36;;;;;;;20.63;8.32;;;;;;;13.35;52.56;101928.84;5009181;28;20065;-66
2022/02/09 15:12:30;;;;;;;23.00;8.38;;;;;;;13.02;52.56;101916.09;4955823;28;20038;-66
2022/02/09 15:22:35;;;;;;;20.08;7.72;;;;;;;13.35;51.18;101915.00;5026739;28;20052;-66
2022/02/09 15:25:12;;;;;;;16.60;7.68;;;;;;;13.40;51.38;101912.19;5029288;28;20049;-67
2022/02/09 15:27:40;;;;;;;20.27;7.53;;;;;;;13.42;51.35;101912.66;5020578;28;20060;-68
2022/02/09 15:30:07;;;;;;;17.80;7.57;;;;;;;13.50;50.97;101909.22;5017402;28;20053;-67
2022/02/09 15:32:43;;;;;;;20.75;7.40;;;;;;;13.64;50.94;101913.94;5015521;28;20045;-66
2022/02/09 15:35:29;;;;;;;20.08;7.22;;;;;;;13.50;50.93;101911.16;5033921;28;20065;-68
2022/02/09 15:38:05;;;;;;;24.08;7.75;;;;;;;13.50;51.26;101909.22;5015742;28;20042;-66
2022/02/09 15:41:02;;;;;;;18.23;7.63;;;;;;;13.61;50.96;101906.25;5002187;28;20056;-67
2022/02/09 16:10:51;;;;;;;17.38;6.93;;;;;;;13.17;52.00;101876.31;5029663;28;20053;-66
2022/02/09 16:24:29;;;;;;;18.77;7.10;;;;;;;13.42;51.68;101870.34;5016253;28;20049;-66
2022/02/09 16:38:18;;;;;;;16.00;6.50;;;;;;;13.11;52.63;101872.81;5010770;28;20065;-68
2022/02/09 16:46:22;;;;;;;21.15;7.57;;;;;;;12.86;53.72;101859.38;5022126;28;20054;-67
2022/02/09 16:49:23;;;;;;;19.17;6.75;;;;;;;12.97;53.48;101854.50;5024197;28;20060;-66
2022/02/09 16:51:54;;;;;;;17.30;7.15;;;;;;;13.04;53.55;101861.31;5012877;28;20505;-66
2022/02/09 16:55:17;;;;;;;20.90;7.13;;;;;;;12.92;53.84;101857.38;5029979;28;20056;-66
2022/02/09 17:19:14;;;;;;;16.92;7.18;;;;;;;12.59;56.37;101848.19;5033582;28;20459;-61
2022/02/09 17:21:41;;;;;;;24.88;8.15;;;;;;;12.65;56.47;101841.47;5031470;28;20050;-60
2022/02/09 17:24:09;;;;;;;20.17;8.07;;;;;;;12.92;55.45;101838.81;5034279;28;20053;-60
2022/02/09 17:26:36;;;;;;;20.52;7.90;;;;;;;12.71;56.19;101844.97;5036833;28;20041;-61
2022/02/09 17:29:04;;;;;;;20.90;8.45;;;;;;;12.64;56.38;101844.53;5034698;28;20054;-61
2022/02/09 17:31:46;;;;;;;20.00;6.88;;;;;;;12.34;57.41;101843.84;5026649;28;20053;-61
2022/02/09 17:34:44;;;;;;;22.02;7.38;;;;;;;12.26;57.92;101846.44;5017850;28;20080;-62
2022/02/09 17:53:32;;;;;;;16.92;7.78;;;;;;;12.28;58.33;101850.56;5036836;28;20064;-62
2022/02/09 17:56:12;;;;;;;23.80;7.78;;;;;;;12.48;58.05;101844.75;5033296;28;20206;-61
2022/02/09 17:58:47;;;;;;;23.40;7.47;;;;;;;12.35;58.39;101855.72;5021533;28;20425;-62
2022/02/09 18:01:16;;;;;;;18.88;8.45;;;;;;;12.42;58.36;101853.41;5024668;28;20064;-62
2022/02/09 18:03:45;;;;;;;18.35;8.68;;;;;;;12.50;58.05;101847.19;5020059;28;20049;-62
2022/02/09 18:06:21;;;;;;;20.67;8.75;;;;;;;12.34;58.61;101857.66;5035075;28;20049;-61
2022/02/09 18:08:57;;;;;;;23.00;9.38;;;;;;;12.45;58.52;101853.63;5014068;28;20061;-62
2022/02/09 18:31:11;;;;;;;22.15;9.32;;;;;;;12.18;59.62;101842.44;5007654;28;20050;-63
2022/02/09 18:42:43;;;;;;;19.35;9.30;;;;;;;12.37;59.55;101839.66;5020654;28;20046;-62
2022/02/09 18:47:28;;;;;;;23.40;10.13;;;;;;;12.35;59.60;101839.16;5032261;28;20045;-61
2022/02/09 19:03:38;;;;;;;27.60;10.38;;;;;;;12.01;61.01;101821.94;5035516;28;20038;-67
2022/02/09 19:06:21;;;;;;;23.48;10.27;;;;;;;12.08;60.96;101827.94;5012256;28;20053;-67
2022/02/09 19:14:10;;;;;;;30.25;11.98;;;;;;;11.80;61.44;101820.56;5035631;28;20049;-66
2022/02/09 19:14:45;;;;;;;25.67;12.38;;;;;;;11.93;61.61;101806.03;5024576;28;20041;-67
2022/02/09 19:17:44;;;;;;;31.45;13.02;;;;;;;11.90;61.73;101801.09;5020933;28;20420;-66
2022/02/09 19:30:58;;;;;;;28.98;13.48;;;;;;;11.67;62.56;101797.25;5033304;28;20433;-67
2022/02/09 19:40:32;;;;;;;25.55;12.35;;;;;;;11.64;63.02;101791.47;5033256;28;20049;-67
2022/02/09 19:42:23;;;;;;;37.53;16.77;;;;;;;11.20;64.31;101789.75;5034097;28;20049;-67
2022/02/09 19:48:00;;;;;;;40.75;19.30;;;;;;;10.89;66.08;101804.94;5031170;28;20056;-64
2022/02/09 19:50:44;;;;;;;38.47;20.02;;;;;;;11.03;65.59;101794.06;5025492;28;20049;-64
2022/02/09 19:53:41;;;;;;;41.25;18.80;;;;;;;10.99;65.81;101792.97;5026855;28;20049;-65
2022/02/09 19:56:12;;;;;;;36.88;18.42;;;;;;;11.01;65.74;101791.59;5031205;28;20046;-64
2022/02/09 19:58:44;;;;;;;37.17;19.98;;;;;;;11.02;65.46;101787.72;5032224;28;20055;-64
2022/02/09 20:01:15;;;;;;;31.00;17.23;;;;;;;10.81;66.53;101796.47;5034526;28;20405;-65
2022/02/09 20:03:43;;;;;;;33.47;17.10;;;;;;;10.78;66.72;101791.50;5031913;28;20484;-64
2022/02/09 20:06:10;;;;;;;37.33;20.35;;;;;;;10.53;67.83;101788.97;5029110;28;20059;-63
2022/02/09 20:08:39;;;;;;;27.48;15.40;;;;;;;10.33;68.39;101789.13;5031727;28;20056;-64
2022/02/09 20:11:09;;;;;;;32.97;16.38;;;;;;;10.21;69.19;101789.47;5016847;28;20552;-64
2022/02/09 20:13:37;;;;;;;34.22;16.05;;;;;;;10.37;68.98;101788.28;5031932;28;20048;-64
2022/02/09 20:16:05;;;;;;;30.45;14.30;;;;;;;10.37;69.34;101787.44;4995683;28;20408;-65
2022/02/09 20:18:32;;;;;;;30.40;15.75;;;;;;;10.08;69.70;101781.81;5036933;28;20060;-65
2022/02/09 20:21:02;;;;;;;33.75;15.88;;;;;;;10.13;70.18;101784.56;5030179;28;20042;-66
2022/02/09 20:23:32;;;;;;;30.27;16.27;;;;;;;9.95;71.07;101776.94;5008457;28;20401;-64
2022/02/09 20:26:04;;;;;;;33.10;15.52;;;;;;;10.47;69.68;101781.84;5030974;28;20046;-64
2022/02/09 20:28:31;;;;;;;34.15;16.17;;;;;;;10.19;69.98;101780.66;4997623;28;20428;-64
2022/02/09 20:31:04;;;;;;;34.00;17.25;;;;;;;9.92;70.97;101785.75;5033114;28;20045;-64
2022/02/09 20:33:44;;;;;;;44.97;19.75;;;;;;;10.18;70.64;101779.84;5011042;28;20046;-65
2022/02/09 20:36:13;;;;;;;38.28;18.55;;;;;;;10.27;69.88;101779.25;5018275;28;20053;-65
2022/02/09 20:38:43;;;;;;;37.60;19.63;;;;;;;10.11;70.16;101775.78;5000112;28;20053;-65
2022/02/09 20:41:12;;;;;;;35.53;17.23;;;;;;;10.10;69.80;101785.97;4995362;28;20303;-66
2022/02/09 20:44:00;;;;;;;41.38;17.67;;;;;;;9.98;70.27;101776.34;5014890;28;20042;-65
2022/02/09 20:46:30;;;;;;;62.88;37.35;;;;;;;10.06;70.55;101779.34;5032969;28;20045;-65
2022/02/09 20:48:58;;;;;;;;;;;;;;;10.24;69.96;101780.63;5021649;28;20053;-65
2022/02/09 20:51:25;;;;;;;63.20;28.60;;;;;;;10.23;69.73;101779.00;5013524;28;20416;-64
2022/02/09 20:53:53;;;;;;;44.50;20.70;;;;;;;10.19;70.04;101781.50;5033683;28;20046;-64
2022/02/09 20:56:20;;;;;;;44.95;20.38;;;;;;;10.33;69.34;101786.34;5031223;28;20049;-65
2022/02/09 20:58:52;;;;;;;40.83;21.98;;;;;;;10.20;70.02;101788.63;5020543;28;20049;-65
2022/02/09 21:01:27;;;;;;;35.22;19.15;;;;;;;10.21;69.83;101783.97;5037859;28;20041;-64
2022/02/09 21:04:01;;;;;;;40.42;18.33;;;;;;;10.22;69.84;101769.09;5021739;28;20045;-64
2022/02/09 21:06:55;;;;;;;37.75;18.70;;;;;;;10.26;69.66;101777.59;5036538;28;20052;-64
2022/02/09 21:09:36;;;;;;;41.00;19.67;;;;;;;10.19;69.65;101776.00;5040563;28;20053;-64
2022/02/09 21:22:44;;;;;;;35.50;17.25;;;;;;;9.86;70.82;101775.88;5034379;28;20049;-64
2022/02/09 21:28:59;;;;;;;36.75;17.38;;;;;;;9.72;71.25;101792.19;5017914;28;20128;-64
2022/02/09 21:54:59;;;;;;;31.13;17.63;;;;;;;9.44;72.06;101794.75;5021051;28;20065;-65
2022/02/09 22:27:44;;;;;;;37.22;21.33;;;;;;;8.74;76.07;101774.53;5023371;28;20065;-67
2022/02/09 22:55:25;;;;;;;36.95;21.60;;;;;;;8.93;75.29;101745.38;5035347;28;20500;-67
2022/02/09 23:01:15;;;;;;;40.55;24.38;;;;;;;9.03;74.96;101737.13;5035535;28;20045;-66
2022/02/09 23:03:57;;;;;;;40.72;22.80;;;;;;;9.09;75.15;101747.00;5027530;28;20054;-66
2022/02/09 23:06:53;;;;;;;35.03;22.00;;;;;;;8.96;75.50;101733.84;5023742;28;20072;-64
2022/02/09 23:12:11;;;;;;;;;;;;;;;8.94;75.38;101736.03;5035672;28;20057;-66
2022/02/09 23:15:32;;;;;;;35.78;22.25;;;;;;;9.24;74.74;101742.59;5035091;28;20249;-66
